Time;durP1;ratioP1;P1;durP2;ratioP2;P2;SDS_P1;SDS_P2;PMS_P1;PMS_P2;Temp;Humidity;BMP_temperature;BMP_pressure;BME280_temperature;BME280_humidity;BME280_pressure;Samples;Min_cycle;Max_cycle;Signal;HPM_P1;HPM_P2
2022/01/26 00:06:36;;;;;;;9.43;5.50;;;;;;;3.78;100.00;102801.66;4914541;29;20204;-42
2022/01/26 00:09:03;;;;;;;8.77;4.93;;;;;;;3.79;100.00;102795.50;4914348;29;20224;-42
2022/01/26 00:11:31;;;;;;;5.60;4.47;;;;;;;3.68;100.00;102798.81;4914609;29;20175;-45
2022/01/26 00:14:01;;;;;;;7.68;5.05;;;;;;;3.79;100.00;102792.84;4914422;29;20171;-43
2022/01/26 00:16:35;;;;;;;6.80;5.00;;;;;;;3.72;100.00;102787.41;4914707;29;20614;-46
2022/01/26 00:19:03;;;;;;;9.80;5.18;;;;;;;3.75;100.00;102798.94;4914433;29;20685;-44
2022/01/26 00:21:33;;;;;;;8.30;4.72;;;;;;;3.68;100.00;102798.81;4914604;29;20168;-44
2022/01/26 00:27:03;;;;;;;9.32;5.65;;;;;;;3.75;100.00;102788.34;4914319;29;20203;-43
2022/01/26 00:29:32;;;;;;;10.50;5.45;;;;;;;3.72;100.00;102782.13;4914527;29;20191;-46
2022/01/26 00:40:20;;;;;;;10.15;5.60;;;;;;;3.75;100.00;102789.22;4917984;29;20236;-44
2022/01/26 00:42:48;;;;;;;14.60;6.28;;;;;;;3.72;100.00;102775.91;4917758;29;20187;-42
2022/01/26 00:45:20;;;;;;;11.48;5.90;;;;;;;3.76;100.00;102782.16;4917810;29;20180;-43
2022/01/26 00:47:45;;;;;;;10.00;6.80;;;;;;;3.72;100.00;102792.72;4916317;29;20318;-46
2022/01/26 00:50:11;;;;;;;14.25;6.40;;;;;;;3.76;100.00;102784.81;4917879;29;20247;-43
2022/01/26 00:52:40;;;;;;;13.00;6.22;;;;;;;3.79;100.00;102772.53;4932576;29;20184;-48
2022/01/26 00:55:07;;;;;;;12.93;6.78;;;;;;;3.79;100.00;102775.19;4917408;29;20169;-46
2022/01/26 00:57:32;;;;;;;11.10;6.47;;;;;;;3.92;100.00;102774.56;4917778;29;20203;-41
2022/01/26 00:59:59;;;;;;;10.00;7.10;;;;;;;3.79;100.00;102780.50;4917577;29;20557;-43
2022/01/26 01:02:25;;;;;;;14.52;6.80;;;;;;;3.79;100.00;102780.50;4917758;29;20191;-44
2022/01/26 01:04:50;;;;;;;12.05;6.95;;;;;;;3.81;100.00;102784.06;4917312;29;20645;-43
2022/01/26 01:07:19;;;;;;;9.93;6.88;;;;;;;3.90;100.00;102775.41;4917280;29;20219;-43
2022/01/26 01:09:46;;;;;;;10.15;6.70;;;;;;;3.86;100.00;102781.50;4916281;29;20190;-42
2022/01/26 01:12:12;;;;;;;12.85;6.80;;;;;;;3.83;100.00;102771.75;4917227;29;20180;-43
2022/01/26 01:14:39;;;;;;;13.30;7.65;;;;;;;3.78;100.00;102775.13;4917378;29;20255;-41
2022/01/26 01:17:07;;;;;;;10.95;7.30;;;;;;;3.98;100.00;102773.81;4915697;29;20255;-42
2022/01/26 01:19:45;;;;;;;11.27;6.93;;;;;;;3.87;100.00;102767.38;4917132;29;20757;-44
2022/01/26 01:30:20;;;;;;;14.98;7.63;;;;;;;3.85;100.00;102750.56;4917253;29;20152;-42
2022/01/26 01:33:03;;;;;;;12.35;7.32;;;;;;;3.95;100.00;102762.25;4917004;29;20255;-42
2022/01/26 01:35:31;;;;;;;11.43;6.32;;;;;;;3.86;100.00;102747.03;4917020;29;20199;-46
2022/01/26 01:37:57;;;;;;;12.63;7.13;;;;;;;3.85;100.00;102742.63;4915626;29;20479;-42
2022/01/26 01:40:22;;;;;;;12.27;7.05;;;;;;;3.81;100.00;102748.72;4916458;29;20215;-41
2022/01/26 01:42:48;;;;;;;13.93;7.57;;;;;;;3.78;100.00;102744.22;4916449;29;20179;-42
2022/01/26 01:45:13;;;;;;;13.13;7.88;;;;;;;3.76;100.00;102737.09;4915478;29;20180;-43
2022/01/26 01:47:39;;;;;;;12.45;7.38;;;;;;;3.81;100.00;102727.50;4916556;29;20677;-41
2022/01/26 01:50:10;;;;;;;12.65;7.43;;;;;;;3.76;100.00;102731.78;4916670;29;20181;-41
2022/01/26 01:52:35;;;;;;;15.30;7.45;;;;;;;3.73;100.00;102727.31;4916308;29;20172;-46
2022/01/26 01:55:04;;;;;;;12.02;7.32;;;;;;;3.76;100.00;102730.06;4916203;29;20183;-41
2022/01/26 01:57:30;;;;;;;13.45;8.07;;;;;;;3.75;100.00;102732.66;4916310;29;20196;-41
2022/01/26 01:59:55;;;;;;;11.45;6.75;;;;;;;3.83;100.00;102731.97;4916473;29;20239;-42
2022/01/26 02:02:20;;;;;;;13.57;7.97;;;;;;;3.74;100.00;102729.13;4916279;29;20542;-45
2022/01/26 02:04:46;;;;;;;13.93;7.20;;;;;;;3.74;100.00;102726.47;4916350;29;20180;-45
2022/01/26 02:07:12;;;;;;;15.93;7.53;;;;;;;3.77;100.00;102723.00;4916237;29;20204;-41
2022/01/26 02:09:38;;;;;;;14.60;8.13;;;;;;;3.71;100.00;102731.69;4916368;29;20242;-42
2022/01/26 02:12:13;;;;;;;13.88;8.15;;;;;;;3.70;100.00;102725.50;4916156;29;20183;-41
2022/01/26 02:14:43;;;;;;;12.32;8.02;;;;;;;3.72;100.00;102715.84;4915615;29;20184;-45
2022/01/26 03:00:36;;;;;;;16.45;8.70;;;;;;;3.55;100.00;102658.94;4893639;29;20216;-41
2022/01/26 03:03:14;;;;;;;20.27;8.85;;;;;;;3.60;100.00;102659.03;4908514;29;20191;-41
2022/01/26 03:05:48;;;;;;;18.33;9.73;;;;;;;3.59;100.00;102650.19;4895312;29;20623;-48
2022/01/26 03:08:13;;;;;;;13.40;8.32;;;;;;;3.64;100.00;102648.50;4895914;29;20211;-47
2022/01/26 03:10:53;;;;;;;16.15;8.70;;;;;;;3.60;100.00;102651.97;4895817;29;20177;-46
2022/01/26 03:13:24;;;;;;;17.30;9.02;;;;;;;3.59;100.00;102650.19;4895646;29;20265;-47
2022/01/26 03:15:55;;;;;;;15.65;9.07;;;;;;;3.57;100.00;102643.06;4895397;29;20251;-46
2022/01/26 03:21:09;;;;;;;14.73;8.75;;;;;;;3.69;100.00;102638.00;4895368;29;20276;-47
2022/01/26 03:34:18;;;;;;;22.08;10.88;;;;;;;3.58;100.00;102644.84;4895193;29;20522;-45
2022/01/26 03:36:57;;;;;;;19.67;10.90;;;;;;;3.60;100.00;102648.44;4895685;29;20219;-48
2022/01/26 03:39:24;;;;;;;19.73;10.98;;;;;;;3.67;100.00;102638.00;4895303;29;20249;-47
2022/01/26 03:44:15;;;;;;;24.08;12.65;;;;;;;3.59;100.00;102641.34;4895321;29;20625;-48
2022/01/26 03:46:41;;;;;;;24.40;12.85;;;;;;;3.59;100.00;102626.34;4895493;29;20208;-47
2022/01/26 03:49:08;;;;;;;25.50;13.07;;;;;;;3.59;100.00;102625.44;4895529;29;20169;-49
2022/01/26 03:51:34;;;;;;;23.90;13.73;;;;;;;3.64;100.00;102622.00;4895633;29;20662;-47
2022/01/26 03:54:01;;;;;;;24.67;13.48;;;;;;;3.64;100.00;102635.25;4895254;29;20181;-47
2022/01/26 03:56:26;;;;;;;27.38;14.05;;;;;;;3.62;100.00;102642.28;4895263;29;20201;-45
2022/01/26 03:58:52;;;;;;;27.25;14.38;;;;;;;3.63;100.00;102641.44;4894144;29;20224;-49
2022/01/26 04:01:18;;;;;;;27.60;14.18;;;;;;;3.68;100.00;102639.75;4895249;29;20217;-48
2022/01/26 04:03:43;;;;;;;29.25;14.82;;;;;;;3.72;100.00;102625.72;4893787;29;20184;-47
2022/01/26 04:06:09;;;;;;;25.13;14.07;;;;;;;3.66;100.00;102620.28;4895116;29;20173;-46
2022/01/26 04:08:36;;;;;;;27.92;13.90;;;;;;;3.65;100.00;102607.00;4899055;29;20217;-46
2022/01/26 04:14:05;;;;;;;29.55;15.43;;;;;;;3.65;100.00;102597.31;4897657;29;20207;-48
2022/01/26 04:16:31;;;;;;;28.63;15.65;;;;;;;3.61;100.00;102598.09;4897936;29;20228;-48
2022/01/26 04:18:57;;;;;;;28.27;15.48;;;;;;;3.59;100.00;102591.00;4898727;29;20678;-47
2022/01/26 04:23:54;;;;;;;33.90;16.40;;;;;;;3.62;100.00;102597.22;4898290;29;20513;-45
2022/01/26 04:26:27;;;;;;;28.42;15.52;;;;;;;3.66;100.00;102592.88;4898944;29;20705;-47
2022/01/26 04:28:58;;;;;;;29.60;16.92;;;;;;;3.71;100.00;102589.44;4898706;29;20165;-46
2022/01/26 04:31:24;;;;;;;30.08;15.18;;;;;;;3.77;100.00;102593.09;4898992;29;20224;-47
2022/01/26 04:33:50;;;;;;;29.20;16.05;;;;;;;3.74;100.00;102587.72;4898948;29;20192;-44
2022/01/26 04:36:23;;;;;;;31.08;16.30;;;;;;;3.69;100.00;102575.25;4898953;29;20276;-42
2022/01/26 04:38:53;;;;;;;35.67;16.98;;;;;;;3.67;100.00;102571.72;4898913;29;20200;-43
2022/01/26 04:41:34;;;;;;;39.53;18.48;;;;;;;3.66;100.00;102577.88;4898541;29;20719;-42
2022/01/26 04:44:07;;;;;;;34.13;16.83;;;;;;;3.71;100.00;102570.00;4899025;29;20203;-44
2022/01/26 04:46:32;;;;;;;38.80;19.23;;;;;;;3.65;100.00;102556.63;4898843;29;20580;-45
2022/01/26 04:48:58;;;;;;;35.28;18.27;;;;;;;3.66;100.00;102559.31;4898829;29;20252;-41
2022/01/26 04:51:23;;;;;;;37.20;19.17;;;;;;;3.67;100.00;102561.13;4898604;29;20646;-43
2022/01/26 04:53:49;;;;;;;40.75;18.13;;;;;;;3.74;100.00;102567.41;4898495;29;20260;-42
2022/01/26 04:56:14;;;;;;;33.67;18.00;;;;;;;3.66;100.00;102576.97;4898815;29;20198;-42
2022/01/26 04:58:41;;;;;;;35.88;17.52;;;;;;;3.62;100.00;102567.19;4897170;29;20180;-42
2022/01/26 05:01:07;;;;;;;33.38;17.95;;;;;;;3.67;100.00;102566.41;4899387;29;20562;-43
2022/01/26 05:03:32;;;;;;;36.45;18.48;;;;;;;3.72;100.00;102562.09;4902337;29;20184;-43
2022/01/26 05:05:58;;;;;;;38.30;19.70;;;;;;;3.59;100.00;102565.38;4917053;29;20169;-43
2022/01/26 05:08:23;;;;;;;36.88;19.67;;;;;;;3.58;100.00;102566.22;4906947;29;20184;-41
2022/01/26 05:10:49;;;;;;;39.05;20.17;;;;;;;3.60;100.00;102567.16;4887906;29;20189;-43
2022/01/26 05:13:15;;;;;;;45.90;20.38;;;;;;;3.61;100.00;102573.38;4879214;29;20165;-44
2022/01/26 05:15:42;;;;;;;38.95;19.55;;;;;;;3.60;100.00;102561.84;4879339;29;20189;-43
2022/01/26 05:18:08;;;;;;;40.67;20.40;;;;;;;3.60;100.00;102566.25;4878763;29;20576;-42
2022/01/26 05:20:34;;;;;;;37.25;19.83;;;;;;;3.60;100.00;102574.22;4880648;29;20584;-44
2022/01/26 05:23:00;;;;;;;39.65;20.02;;;;;;;3.67;100.00;102570.81;4897988;29;20177;-40
2022/01/26 05:25:26;;;;;;;41.60;20.10;;;;;;;3.62;100.00;102568.06;4897627;29;20173;-44
2022/01/26 05:27:51;;;;;;;42.00;20.08;;;;;;;3.63;100.00;102548.66;4896751;29;20705;-43
2022/01/26 05:30:17;;;;;;;39.38;20.30;;;;;;;3.54;100.00;102521.97;4897902;29;20161;-41
2022/01/26 05:32:43;;;;;;;39.85;20.45;;;;;;;3.54;100.00;102527.28;4898113;29;20165;-43
2022/01/26 05:35:09;;;;;;;37.50;19.17;;;;;;;3.59;100.00;102536.22;4897874;29;20184;-42
2022/01/26 05:37:34;;;;;;;43.92;21.02;;;;;;;3.50;100.00;102521.06;4897537;29;20249;-43
2022/01/26 05:40:02;;;;;;;40.30;20.05;;;;;;;3.55;100.00;102528.19;4897671;29;20332;-43
2022/01/26 05:42:27;;;;;;;39.90;20.15;;;;;;;3.52;100.00;102539.63;4897647;29;20181;-42
2022/01/26 05:44:55;;;;;;;37.88;19.60;;;;;;;3.51;100.00;102532.53;4897579;29;20195;-45
2022/01/26 05:47:21;;;;;;;37.03;18.73;;;;;;;3.57;100.00;102539.72;4897173;29;20621;-43
2022/01/26 05:49:46;;;;;;;32.47;18.58;;;;;;;3.51;100.00;102537.84;4896352;29;20193;-43
2022/01/26 05:52:12;;;;;;;34.88;18.45;;;;;;;3.63;100.00;102527.47;4897562;29;20220;-44
2022/01/26 05:54:38;;;;;;;35.63;19.20;;;;;;;3.63;100.00;102531.84;4896798;29;20181;-44
2022/01/26 05:57:04;;;;;;;41.55;19.48;;;;;;;3.58;100.00;102526.47;4897311;29;20196;-44
2022/01/26 05:59:32;;;;;;;35.30;18.77;;;;;;;3.62;100.00;102517.72;4897029;29;20337;-45
2022/01/26 06:01:57;;;;;;;40.30;20.23;;;;;;;3.58;100.00;102504.38;4897121;29;20172;-45
2022/01/26 06:04:23;;;;;;;44.13;20.17;;;;;;;3.53;100.00;102495.47;4896612;29;20552;-44
2022/01/26 06:06:49;;;;;;;45.15;19.92;;;;;;;3.58;100.00;102493.78;4897073;29;20260;-43
2022/01/26 06:09:14;;;;;;;36.42;19.70;;;;;;;3.53;100.00;102498.13;4897070;29;20650;-45
2022/01/26 06:11:39;;;;;;;39.72;20.23;;;;;;;3.47;100.00;102489.19;4897006;29;20177;-44
2022/01/26 06:14:05;;;;;;;40.85;20.77;;;;;;;3.48;100.00;102488.34;4896858;29;20185;-42
2022/01/26 06:16:30;;;;;;;41.70;19.65;;;;;;;3.50;100.00;102494.56;4896449;29;20188;-41
2022/01/26 06:18:55;;;;;;;34.05;19.02;;;;;;;3.47;100.00;102499.78;4897151;29;20213;-42
2022/01/26 06:21:21;;;;;;;39.63;19.65;;;;;;;3.56;100.00;102493.75;4897005;29;20198;-43
2022/01/26 06:23:47;;;;;;;42.58;21.38;;;;;;;3.43;100.00;102505.91;4896507;29;20307;-42
2022/01/26 06:26:12;;;;;;;34.97;18.10;;;;;;;3.46;100.00;102491.81;4896789;29;20204;-41
2022/01/26 06:28:38;;;;;;;40.45;19.63;;;;;;;3.45;100.00;102490.03;4896505;29;20244;-42
2022/01/26 06:31:09;;;;;;;41.38;20.25;;;;;;;3.48;100.00;102495.41;4895814;29;20646;-41
2022/01/26 06:33:35;;;;;;;36.08;18.85;;;;;;;3.42;100.00;102506.75;4896161;29;20338;-44
2022/01/26 06:36:02;;;;;;;34.70;18.77;;;;;;;3.39;100.00;102509.38;4895340;29;20252;-46
2022/01/26 06:38:28;;;;;;;35.25;19.85;;;;;;;3.39;100.00;102513.75;4896286;29;20256;-43
2022/01/26 06:40:55;;;;;;;38.78;20.55;;;;;;;3.46;100.00;102507.72;4896748;29;20697;-45
2022/01/26 06:43:24;;;;;;;39.33;19.98;;;;;;;3.39;100.00;102492.56;4896078;29;20185;-42
2022/01/26 06:45:55;;;;;;;36.38;19.85;;;;;;;3.37;100.00;102495.19;4896690;29;20204;-43
2022/01/26 06:50:52;;;;;;;45.80;21.67;;;;;;;3.33;100.00;102509.25;4896182;29;20216;-43
2022/01/26 06:53:17;;;;;;;45.17;22.65;;;;;;;3.34;100.00;102499.53;4896338;29;20539;-42
2022/01/26 06:55:42;;;;;;;39.50;21.88;;;;;;;3.47;100.00;102498.91;4894079;29;20173;-43
2022/01/26 06:58:08;;;;;;;41.13;21.83;;;;;;;3.41;100.00;102496.13;4896027;29;20333;-43
2022/01/26 07:00:34;;;;;;;37.72;20.75;;;;;;;3.37;100.00;102488.97;4895885;29;20574;-42
2022/01/26 07:02:59;;;;;;;40.72;21.40;;;;;;;3.41;100.00;102509.38;4896372;29;20181;-43
2022/01/26 07:05:24;;;;;;;39.20;21.67;;;;;;;3.50;100.00;102493.66;4895760;29;20181;-43
2022/01/26 07:07:50;;;;;;;43.60;21.75;;;;;;;3.43;100.00;102490.03;4895939;29;20212;-41
2022/01/26 07:10:16;;;;;;;41.03;22.70;;;;;;;3.41;100.00;102501.44;4895636;29;20264;-42
2022/01/26 07:12:41;;;;;;;43.40;22.20;;;;;;;3.36;100.00;102498.69;4895751;29;20169;-43
2022/01/26 07:23:06;;;;;;;44.25;24.17;;;;;;;3.33;100.00;102501.31;4911553;29;20176;-43
2022/01/26 07:25:32;;;;;;;48.30;25.23;;;;;;;3.32;100.00;102488.03;4914596;29;20239;-43
2022/01/26 07:27:59;;;;;;;50.58;25.17;;;;;;;3.40;100.00;102497.91;4914115;29;20576;-43
2022/01/26 07:30:25;;;;;;;54.92;27.13;;;;;;;3.41;100.00;102490.81;4914223;29;20160;-42
2022/01/26 07:32:50;;;;;;;54.75;28.55;;;;;;;3.32;100.00;102504.78;4914360;29;20708;-43
2022/01/26 07:35:15;;;;;;;55.13;27.45;;;;;;;3.40;100.00;102504.97;4914229;29;20176;-45
2022/01/26 07:37:43;;;;;;;61.00;29.17;;;;;;;3.30;100.00;102502.13;4913869;29;20282;-44
2022/01/26 07:40:09;;;;;;;54.58;28.50;;;;;;;3.28;100.00;102497.69;4913925;29;20212;-44
2022/01/26 07:42:36;;;;;;;59.10;29.88;;;;;;;3.23;100.00;102499.34;4914122;29;20261;-44
2022/01/26 07:45:07;;;;;;;54.70;30.15;;;;;;;3.29;100.00;102496.81;4914246;29;20267;-45
2022/01/26 07:47:33;;;;;;;58.00;30.98;;;;;;;3.35;100.00;102491.63;4914288;29;20204;-44
2022/01/26 07:50:01;;;;;;;64.78;36.45;;;;;;;3.28;100.00;102500.34;4913943;29;20184;-43
2022/01/26 07:52:29;;;;;;;66.70;37.30;;;;;;;3.33;100.00;102495.13;4902930;29;20185;-45
2022/01/26 07:54:54;;;;;;;63.60;34.38;;;;;;;3.31;100.00;102484.47;4895457;29;20203;-44
2022/01/26 07:57:21;;;;;;;62.85;33.22;;;;;;;3.29;100.00;102500.34;4908512;29;20283;-45
2022/01/26 07:59:46;;;;;;;69.22;33.17;;;;;;;3.25;100.00;102501.13;4895050;29;20213;-45
2022/01/26 08:02:12;;;;;;;66.07;33.75;;;;;;;3.27;100.00;102509.13;4894807;29;20188;-43
2022/01/26 08:04:37;;;;;;;62.88;33.78;;;;;;;3.27;100.00;102511.78;4893337;29;20185;-43
2022/01/26 08:07:03;;;;;;;68.63;34.08;;;;;;;3.30;100.00;102499.50;4894558;29;20201;-44
2022/01/26 08:09:29;;;;;;;68.60;34.47;;;;;;;3.22;100.00;102493.16;4894998;29;20176;-44
2022/01/26 08:11:54;;;;;;;73.03;34.67;;;;;;;3.24;100.00;102499.38;4894567;29;20232;-44
2022/01/26 08:14:19;;;;;;;68.68;33.50;;;;;;;3.33;100.00;102495.13;4894462;29;20275;-46
2022/01/26 08:16:45;;;;;;;69.40;34.78;;;;;;;3.29;100.00;102492.41;4894893;29;20196;-44
2022/01/26 08:19:13;;;;;;;70.55;36.03;;;;;;;3.27;100.00;102502.06;4894784;29;20196;-43
2022/01/26 08:21:39;;;;;;;72.75;35.67;;;;;;;3.25;100.00;102498.50;4894837;29;20177;-43
2022/01/26 08:24:12;;;;;;;73.47;35.60;;;;;;;3.18;100.00;102501.91;4894559;29;20235;-44
2022/01/26 08:26:43;;;;;;;70.70;34.03;;;;;;;3.33;100.00;102497.78;4894818;29;20682;-44
2022/01/26 08:29:15;;;;;;;71.63;34.47;;;;;;;3.30;100.00;102504.78;4895226;29;20177;-43
2022/01/26 08:31:41;;;;;;;69.25;34.13;;;;;;;3.21;100.00;102493.13;4895243;29;20173;-44
2022/01/26 08:34:06;;;;;;;74.43;35.80;;;;;;;3.21;100.00;102504.59;4893424;29;20184;-43
2022/01/26 08:36:32;;;;;;;71.45;34.25;;;;;;;3.26;100.00;102502.06;4894805;29;20185;-44
2022/01/26 08:38:57;;;;;;;70.93;34.13;;;;;;;3.23;100.00;102501.97;4895184;29;20231;-44
2022/01/26 08:41:23;;;;;;;66.30;33.13;;;;;;;3.32;100.00;102506.56;4895000;29;20295;-44
2022/01/26 08:43:48;;;;;;;72.70;35.13;;;;;;;3.38;100.00;102506.69;4894872;29;20165;-43
2022/01/26 08:46:13;;;;;;;69.95;33.45;;;;;;;3.27;100.00;102502.06;4894971;29;20232;-42
2022/01/26 08:48:39;;;;;;;73.05;34.38;;;;;;;3.23;100.00;102510.81;4893948;29;20272;-44
2022/01/26 08:51:04;;;;;;;63.83;32.58;;;;;;;3.21;100.00;102515.19;4878227;29;20721;-44
2022/01/26 08:53:30;;;;;;;74.28;35.30;;;;;;;3.25;100.00;102503.78;4894576;29;20639;-45
2022/01/26 08:55:55;;;;;;;71.63;35.08;;;;;;;3.25;100.00;102502.91;4898561;29;20180;-44
2022/01/26 08:58:21;;;;;;;68.88;34.22;;;;;;;3.22;100.00;102503.75;4897877;29;20570;-43
2022/01/26 09:00:46;;;;;;;75.13;35.45;;;;;;;3.14;100.00;102509.75;4898249;29;20209;-44
2022/01/26 09:03:12;;;;;;;69.90;33.85;;;;;;;3.26;100.00;102502.06;4898649;29;20268;-43
2022/01/26 09:05:37;;;;;;;69.50;34.20;;;;;;;3.25;100.00;102516.16;4898111;29;20177;-46
2022/01/26 09:08:03;;;;;;;74.97;34.17;;;;;;;3.23;100.00;102510.81;4897462;29;20207;-45
2022/01/26 09:10:32;;;;;;;76.47;33.70;;;;;;;3.27;100.00;102510.00;4898090;29;20228;-44
2022/01/26 09:12:59;;;;;;;70.95;34.33;;;;;;;3.24;100.00;102499.38;4898256;29;20176;-43
2022/01/26 09:15:28;;;;;;;70.15;34.53;;;;;;;3.29;100.00;102510.94;4897560;29;20662;-44
2022/01/26 09:17:59;;;;;;;73.57;34.85;;;;;;;3.30;100.00;102511.81;4897461;29;20224;-45
2022/01/26 09:20:25;;;;;;;66.72;33.95;;;;;;;3.34;100.00;102510.13;4897551;29;20204;-45
2022/01/26 09:22:50;;;;;;;65.78;34.17;;;;;;;3.32;100.00;102506.56;4897573;29;20172;-42
2022/01/26 09:25:16;;;;;;;74.50;33.72;;;;;;;3.30;100.00;102520.69;4897488;29;20467;-43
2022/01/26 09:27:42;;;;;;;64.88;34.22;;;;;;;3.32;100.00;102509.22;4897389;29;20205;-47
2022/01/26 09:30:08;;;;;;;64.80;33.83;;;;;;;3.36;100.00;102508.41;4897517;29;20167;-45
2022/01/26 09:32:33;;;;;;;61.88;33.70;;;;;;;3.40;100.00;102515.56;4897320;29;20216;-44
2022/01/26 09:34:59;;;;;;;65.32;32.03;;;;;;;3.39;100.00;102495.19;4897327;29;20185;-43
2022/01/26 09:37:24;;;;;;;71.00;33.83;;;;;;;3.39;100.00;102512.03;4897529;29;20197;-46
2022/01/26 09:39:49;;;;;;;61.72;31.45;;;;;;;3.38;100.00;102498.72;4897172;29;20207;-44
2022/01/26 09:42:16;;;;;;;61.13;30.27;;;;;;;3.45;100.00;102501.50;4897446;29;20176;-44
2022/01/26 09:44:43;;;;;;;61.00;30.42;;;;;;;3.37;100.00;102507.53;4897169;29;20172;-43
2022/01/26 09:47:09;;;;;;;56.40;30.23;;;;;;;3.40;100.00;102513.78;4895855;29;20257;-43
2022/01/26 09:49:36;;;;;;;63.50;29.80;;;;;;;3.35;100.00;102509.28;4897933;29;20219;-42
2022/01/26 09:52:07;;;;;;;56.70;29.30;;;;;;;3.39;100.00;102513.75;4897775;29;20212;-43
2022/01/26 09:54:33;;;;;;;58.58;29.02;;;;;;;3.38;100.00;102514.63;4896689;29;20647;-43
2022/01/26 09:57:04;;;;;;;51.92;28.20;;;;;;;3.38;100.00;102510.22;4905386;29;20782;-43
2022/01/26 09:59:30;;;;;;;53.78;27.75;;;;;;;3.52;100.00;102505.19;4915664;29;20291;-42
2022/01/26 10:01:56;;;;;;;52.58;26.85;;;;;;;3.44;100.00;102506.81;4899847;29;20256;-44
2022/01/26 10:04:26;;;;;;;53.95;26.27;;;;;;;3.55;100.00;102505.22;4895387;29;20192;-42
2022/01/26 10:07:00;;;;;;;50.40;26.33;;;;;;;3.38;100.00;102501.38;4896777;29;20670;-43
2022/01/26 10:09:46;;;;;;;49.38;26.33;;;;;;;3.40;100.00;102507.59;4896552;29;20203;-43
2022/01/26 10:17:42;;;;;;;49.10;24.48;;;;;;;3.43;100.00;102497.06;4896695;29;20196;-42
2022/01/26 10:20:17;;;;;;;44.78;23.75;;;;;;;3.42;100.00;102497.94;4896670;29;20207;-43
2022/01/26 10:22:44;;;;;;;44.10;23.73;;;;;;;3.37;100.00;102502.22;4896720;29;20630;-43
2022/01/26 10:25:12;;;;;;;45.92;23.20;;;;;;;3.38;100.00;102501.38;4896048;29;20601;-41
2022/01/26 10:27:46;;;;;;;45.72;23.88;;;;;;;3.40;100.00;102503.19;4891886;29;20706;-41
2022/01/26 10:30:14;;;;;;;45.40;23.92;;;;;;;3.34;100.00;102504.84;4877862;29;20181;-44
2022/01/26 10:32:41;;;;;;;50.67;24.75;;;;;;;3.33;100.00;102506.59;4877744;29;20302;-45
2022/01/26 10:35:07;;;;;;;47.15;23.60;;;;;;;3.38;100.00;102498.72;4877501;29;20199;-46
2022/01/26 10:37:34;;;;;;;48.42;24.98;;;;;;;3.42;100.00;102511.19;4877707;29;20606;-44
2022/01/26 10:40:09;;;;;;;44.78;23.52;;;;;;;3.43;100.00;102505.00;4877895;29;20272;-44
2022/01/26 10:42:35;;;;;;;52.85;23.70;;;;;;;3.48;100.00;102501.59;4877938;29;20651;-44
2022/01/26 10:45:12;;;;;;;48.35;25.27;;;;;;;3.55;100.00;102501.69;4877819;29;20276;-44
2022/01/26 10:47:43;;;;;;;51.72;24.75;;;;;;;3.47;100.00;102497.13;4877424;29;20212;-44
2022/01/26 10:50:30;;;;;;;51.80;24.65;;;;;;;3.56;100.00;102509.66;4877677;29;20632;-44
2022/01/26 10:53:09;;;;;;;52.30;26.33;;;;;;;3.31;100.00;102492.44;4877450;29;20181;-43
2022/01/26 10:55:37;;;;;;;49.83;24.73;;;;;;;3.33;100.00;102485.41;4876956;29;20546;-43
2022/01/26 10:58:03;;;;;;;57.92;26.77;;;;;;;3.24;100.00;102478.19;4877286;29;20651;-43
2022/01/26 11:00:35;;;;;;;53.92;26.85;;;;;;;3.26;100.00;102479.09;4891481;29;20213;-43
2022/01/26 11:03:00;;;;;;;57.88;25.60;;;;;;;3.20;100.00;102472.81;4895108;29;20176;-44
2022/01/26 11:05:26;;;;;;;54.08;25.15;;;;;;;3.30;100.00;102464.13;4895078;29;20203;-44
2022/01/26 11:07:52;;;;;;;49.55;25.58;;;;;;;3.30;100.00;102469.44;4895578;29;20684;-43
2022/01/26 11:10:18;;;;;;;53.70;25.58;;;;;;;3.21;100.00;102448.97;4895557;29;20508;-45
2022/01/26 11:12:43;;;;;;;59.10;26.05;;;;;;;3.23;100.00;102449.91;4895761;29;20169;-43
2022/01/26 11:15:12;;;;;;;51.38;25.27;;;;;;;3.25;100.00;102448.16;4895255;29;20534;-43
2022/01/26 11:17:42;;;;;;;50.53;24.45;;;;;;;3.29;100.00;102436.75;4895498;29;20197;-43
2022/01/26 11:20:20;;;;;;;54.15;25.73;;;;;;;3.27;100.00;102430.53;4895825;29;20296;-44
2022/01/26 11:22:50;;;;;;;53.72;25.70;;;;;;;3.40;100.00;102398.97;4895148;29;20176;-44
2022/01/26 11:25:16;;;;;;;57.67;26.23;;;;;;;3.44;100.00;102392.88;4894878;29;20272;-45
2022/01/26 11:27:42;;;;;;;58.28;27.30;;;;;;;3.35;100.00;102390.97;4895218;29;20630;-46
2022/01/26 11:30:15;;;;;;;60.85;28.05;;;;;;;3.38;100.00;102385.69;4894160;29;20673;-43
2022/01/26 11:32:58;;;;;;;59.60;28.38;;;;;;;3.38;100.00;102376.88;4895565;29;20189;-44
2022/01/26 11:35:27;;;;;;;59.80;29.02;;;;;;;3.45;100.00;102381.38;4894468;29;20244;-44
2022/01/26 11:38:05;;;;;;;54.65;27.58;;;;;;;3.48;100.00;102386.75;4895280;29;20203;-47
2022/01/26 11:46:26;;;;;;;67.15;29.98;;;;;;;3.44;100.00;102388.44;4894991;29;20204;-45
2022/01/26 11:49:10;;;;;;;57.40;27.98;;;;;;;3.50;100.00;102391.22;4895426;29;20221;-47
2022/01/26 11:51:50;;;;;;;63.08;29.20;;;;;;;3.41;100.00;102388.41;4894859;29;20646;-46
2022/01/26 11:54:18;;;;;;;61.38;29.40;;;;;;;3.37;100.00;102385.66;4894757;29;20177;-46
2022/01/26 11:57:06;;;;;;;65.57;30.83;;;;;;;3.35;100.00;102384.78;4894969;29;20209;-44
2022/01/26 11:59:34;;;;;;;64.22;29.35;;;;;;;3.34;100.00;102375.91;4894970;29;20803;-46
2022/01/26 12:02:04;;;;;;;67.25;30.20;;;;;;;3.27;100.00;102374.91;4895140;29;20165;-46
2022/01/26 12:04:33;;;;;;;60.88;29.55;;;;;;;3.32;100.00;102367.03;4893160;29;20621;-45
2022/01/26 12:07:22;;;;;;;63.28;30.02;;;;;;;3.33;100.00;102379.44;4894163;29;20211;-46
2022/01/26 12:09:49;;;;;;;67.53;29.55;;;;;;;3.26;100.00;102369.63;4893624;29;20286;-45
2022/01/26 12:12:19;;;;;;;63.85;31.45;;;;;;;3.29;100.00;102361.72;4891154;29;20256;-44
2022/01/26 12:15:05;;;;;;;65.10;29.50;;;;;;;3.24;100.00;102356.34;4893950;29;20193;-46
2022/01/26 12:17:35;;;;;;;63.45;30.02;;;;;;;3.27;100.00;102351.09;4894836;29;20222;-44
2022/01/26 12:35:00;;;;;;;59.67;28.55;;;;;;;3.30;100.00;102323.75;4898152;29;20195;-45
2022/01/26 12:45:15;;;;;;;83.50;30.98;;;;;;;3.40;100.00;102327.44;4897197;29;20205;-46
2022/01/26 12:47:42;;;;;;;73.07;30.52;;;;;;;3.42;100.00;102331.00;4895966;29;20228;-45
2022/01/26 12:50:08;;;;;;;77.78;32.10;;;;;;;3.44;100.00;102335.47;4897718;29;20245;-45
2022/01/26 12:52:34;;;;;;;82.07;32.20;;;;;;;3.43;100.00;102332.78;4895800;29;20379;-44
2022/01/26 12:55:00;;;;;;;83.63;31.98;;;;;;;3.39;100.00;102325.66;4896439;29;20192;-45
2022/01/26 12:57:25;;;;;;;77.70;32.20;;;;;;;3.49;100.00;102317.88;4897362;29;20315;-46
2022/01/26 13:00:01;;;;;;;83.97;34.08;;;;;;;3.40;100.00;102312.44;4897023;29;20188;-47
2022/01/26 13:02:26;;;;;;;69.70;31.58;;;;;;;3.46;100.00;102311.66;4897077;29;20192;-47
2022/01/26 13:05:03;;;;;;;86.10;32.17;;;;;;;3.45;100.00;102318.69;4897109;29;20700;-46
2022/01/26 13:07:28;;;;;;;77.38;31.67;;;;;;;3.51;100.00;102318.78;4896627;29;20209;-43
2022/01/26 13:09:53;;;;;;;78.20;31.73;;;;;;;3.48;100.00;102317.88;4903661;29;20663;-46
2022/01/26 13:12:32;;;;;;;86.93;32.97;;;;;;;3.63;100.00;102303.91;4897294;29;20220;-45
2022/01/26 13:15:12;;;;;;;77.43;32.35;;;;;;;3.54;100.00;102299.38;4896206;29;20657;-45
2022/01/26 13:17:47;;;;;;;71.40;29.92;;;;;;;3.59;100.00;102291.53;4896761;29;20212;-47
2022/01/26 13:20:39;;;;;;;70.68;30.08;;;;;;;3.66;100.00;102282.78;4895293;29;20547;-45
2022/01/26 13:23:31;;;;;;;73.85;31.08;;;;;;;3.63;100.00;102286.28;4896634;29;20176;-47
2022/01/26 13:26:16;;;;;;;67.78;29.38;;;;;;;3.65;100.00;102281.91;4896624;29;20188;-45
2022/01/26 13:31:50;;;;;;;63.85;27.13;;;;;;;3.77;100.00;102281.16;4896591;29;20188;-46
2022/01/26 13:34:38;;;;;;;72.47;26.85;;;;;;;3.66;100.00;102274.84;4896159;29;20546;-45